createdAt,value
2019-01-17T00:01:44.208Z,95181.08
2019-01-17T00:04:10.544Z,95180.62
2019-01-17T00:06:36.880Z,95176.43
2019-01-17T00:09:03.212Z,95178.72
2019-01-17T00:11:29.547Z,95181.75
2019-01-17T00:13:55.879Z,95179.30
2019-01-17T00:16:22.208Z,95188.74
2019-01-17T00:18:48.541Z,95190.94
2019-01-17T00:21:14.866Z,95190.48
2019-01-17T00:23:41.191Z,95186.95
2019-01-17T00:26:07.524Z,95186.22
2019-01-17T00:28:33.913Z,95189.04
2019-01-17T00:31:00.285Z,95189.16
2019-01-17T00:33:26.612Z,95190.19
2019-01-17T00:35:52.943Z,95197.77
2019-01-17T00:38:19.280Z,95192.19
2019-01-17T00:40:45.679Z,95194.88
2019-01-17T00:43:12.019Z,95198.23
2019-01-17T00:45:38.431Z,95197.89
2019-01-17T00:48:04.849Z,95195.08
2019-01-17T00:50:31.184Z,95193.97
2019-01-17T00:52:57.513Z,95192.59
2019-01-17T00:55:25.288Z,95200.13
2019-01-17T00:57:50.239Z,95200.67
2019-01-17T01:00:16.571Z,95206.02
2019-01-17T01:02:42.900Z,95204.36
2019-01-17T01:05:09.240Z,95199.10
2019-01-17T01:07:35.619Z,95198.72
2019-01-17T01:10:01.943Z,95206.02
2019-01-17T01:12:28.271Z,95204.56
2019-01-17T01:14:54.651Z,95209.33
2019-01-17T01:17:21.000Z,95205.84
2019-01-17T01:19:47.381Z,95202.45
2019-01-17T01:22:13.776Z,95201.91
2019-01-17T01:24:40.116Z,95203.78
2019-01-17T01:27:06.454Z,95203.61
2019-01-17T01:29:32.839Z,95201.63
2019-01-17T01:31:59.168Z,95205.39
2019-01-17T01:34:25.533Z,95203.80
2019-01-17T01:36:51.903Z,95201.69
2019-01-17T01:39:18.230Z,95199.13
2019-01-17T01:41:44.612Z,95193.56
2019-01-17T01:44:10.998Z,95190.08
2019-01-17T01:46:37.325Z,95195.77
2019-01-17T01:49:03.682Z,95190.63
2019-01-17T01:51:30.062Z,95186.93
2019-01-17T01:53:56.389Z,95189.50
2019-01-17T01:56:22.798Z,95188.92
2019-01-17T01:58:49.128Z,95190.81
2019-01-17T02:01:15.459Z,95190.48
2019-01-17T02:03:41.816Z,95182.28
2019-01-17T02:06:08.149Z,95179.04
2019-01-17T02:08:34.481Z,95191.34
2019-01-17T02:11:00.865Z,95189.44
2019-01-17T02:13:27.194Z,95186.75
2019-01-17T02:15:53.616Z,95180.23
2019-01-17T02:18:19.946Z,95185.53
2019-01-17T02:20:46.277Z,95186.11
2019-01-17T02:23:12.661Z,95182.98
2019-01-17T02:25:38.988Z,95178.67
2019-01-17T02:28:05.327Z,95174.94
2019-01-17T02:30:31.671Z,95171.08
2019-01-17T02:32:58.013Z,95169.55
2019-01-17T02:35:24.396Z,95173.93
2019-01-17T02:37:50.795Z,95175.49
2019-01-17T02:40:17.127Z,95167.20
2019-01-17T02:42:43.475Z,95168.94
2019-01-17T02:45:09.868Z,95167.20
2019-01-17T02:47:36.194Z,95164.62
2019-01-17T02:50:02.529Z,95169.31
2019-01-17T02:52:29.038Z,95163.80
2019-01-17T02:54:55.364Z,95158.56
2019-01-17T02:57:21.736Z,95165.23
2019-01-17T02:59:50.417Z,95157.64
2019-01-17T03:02:16.789Z,95158.10
2019-01-17T03:04:43.130Z,95158.93
2019-01-17T03:07:09.477Z,95155.55
2019-01-17T03:09:35.815Z,95151.55
2019-01-17T03:12:03.874Z,95147.75
2019-01-17T03:14:28.489Z,95147.97
2019-01-17T03:16:54.828Z,95153.11
2019-01-17T03:19:21.151Z,95150.78
2019-01-17T03:21:47.498Z,95140.59
2019-01-17T03:24:13.837Z,95140.83
2019-01-17T03:26:40.195Z,95141.20
2019-01-17T03:29:06.506Z,95134.62
2019-01-17T03:31:32.843Z,95135.57
2019-01-17T03:33:59.223Z,95132.19
2019-01-17T03:36:25.617Z,95127.75
2019-01-17T03:38:51.948Z,95134.18
2019-01-17T03:41:18.323Z,95134.18
2019-01-17T03:43:44.674Z,95117.59
2019-01-17T03:46:11.005Z,95126.13
2019-01-17T03:48:37.389Z,95123.89
2019-01-17T03:51:03.736Z,95123.10
2019-01-17T03:53:30.107Z,95122.52
2019-01-17T03:55:56.468Z,95119.12
2019-01-17T03:58:22.879Z,95119.48
2019-01-17T04:00:49.229Z,95119.94
2019-01-17T04:03:15.668Z,95130.14
2019-01-17T04:05:42.078Z,95124.72
2019-01-17T04:08:08.512Z,95122.75
2019-01-17T04:10:34.932Z,95128.63
2019-01-17T04:13:01.226Z,95133.50
2019-01-17T04:15:27.612Z,95129.94
2019-01-17T04:17:54.055Z,95130.54
2019-01-17T04:20:20.414Z,95133.95
2019-01-17T04:22:46.753Z,95141.23
2019-01-17T04:25:13.096Z,95145.48
2019-01-17T04:27:39.441Z,95151.23
2019-01-17T04:30:05.848Z,95154.76
2019-01-17T04:32:32.178Z,95153.63
2019-01-17T04:34:58.576Z,95152.71
2019-01-17T04:37:24.839Z,95161.13
2019-01-17T04:39:53.183Z,95158.14
2019-01-17T04:42:17.766Z,95164.80
2019-01-17T04:44:44.099Z,95168.30
2019-01-17T04:47:10.471Z,95169.95
2019-01-17T04:49:36.845Z,95174.77
2019-01-17T04:52:03.338Z,95177.58
2019-01-17T04:54:29.665Z,95176.39
2019-01-17T04:56:56.058Z,95176.63
2019-01-17T04:59:22.405Z,95175.47
2019-01-17T05:01:48.750Z,95170.09
2019-01-17T05:04:15.074Z,95167.52
2019-01-17T05:06:41.436Z,95172.30
2019-01-17T05:09:07.996Z,95179.94
2019-01-17T05:11:34.324Z,95176.91
2019-01-17T05:14:00.630Z,95172.44
2019-01-17T05:16:26.956Z,95167.16
2019-01-17T05:18:53.362Z,95176.08
2019-01-17T05:21:19.684Z,95178.66
2019-01-17T05:23:46.050Z,95178.66
2019-01-17T05:26:12.538Z,95181.59
2019-01-17T05:28:38.955Z,95181.37
2019-01-17T05:31:05.301Z,95178.43
2019-01-17T05:33:31.678Z,95179.56
2019-01-17T05:35:58.045Z,95178.18
2019-01-17T05:38:24.601Z,95174.47
2019-01-17T05:40:50.947Z,95174.00
2019-01-17T05:43:17.272Z,95174.93
2019-01-17T05:45:43.617Z,95174.47
2019-01-17T05:48:10.125Z,95177.27
2019-01-17T05:50:36.486Z,95172.59
2019-01-17T05:53:02.807Z,95174.93
2019-01-17T05:55:29.192Z,95171.98
2019-01-17T05:57:55.515Z,95170.60
2019-01-17T06:00:21.825Z,95172.80
2019-01-17T06:02:48.232Z,95165.78
2019-01-17T06:05:14.578Z,95163.75
2019-01-17T06:07:40.969Z,95165.08
2019-01-17T06:10:07.328Z,95170.00
2019-01-17T06:12:33.658Z,95174.05
2019-01-17T06:15:00.010Z,95168.20
2019-01-17T06:17:26.376Z,95169.58
2019-01-17T06:19:52.703Z,95167.38
2019-01-17T06:22:19.097Z,95168.39
2019-01-17T06:24:45.426Z,95157.72
2019-01-17T06:27:11.817Z,95158.36
2019-01-17T06:29:38.146Z,95160.30
2019-01-17T06:32:04.477Z,95157.91
2019-01-17T06:34:30.856Z,95160.25
2019-01-17T06:36:57.218Z,95163.88
2019-01-17T06:39:23.634Z,95160.48
2019-01-17T06:41:53.203Z,95160.39
2019-01-17T06:44:20.486Z,95158.98
2019-01-17T06:46:45.957Z,95164.39
2019-01-17T06:49:12.247Z,95169.78
2019-01-17T06:51:38.653Z,95164.91
2019-01-17T06:54:05.018Z,95166.09
2019-01-17T06:56:31.444Z,95167.61
2019-01-17T06:58:57.778Z,95167.14
2019-01-17T07:01:24.255Z,95162.95
2019-01-17T07:03:50.595Z,95169.27
2019-01-17T07:06:16.932Z,95163.17
2019-01-17T07:08:43.270Z,95168.10
2019-01-17T07:11:09.677Z,95168.95
2019-01-17T07:13:36.020Z,95171.66
2019-01-17T07:16:02.392Z,95170.73
2019-01-17T07:18:28.681Z,95174.82
2019-01-17T07:20:55.093Z,95174.45
2019-01-17T07:23:21.463Z,95173.41
2019-01-17T07:25:47.826Z,95177.05
2019-01-17T07:28:14.226Z,95185.47
2019-01-17T07:30:40.547Z,95185.83
2019-01-17T07:33:06.989Z,95177.74
2019-01-17T07:35:33.329Z,95182.08
2019-01-17T07:38:01.640Z,95182.54
2019-01-17T07:40:26.053Z,95188.15
2019-01-17T07:42:52.456Z,95187.30
2019-01-17T07:45:18.896Z,95191.44
2019-01-17T07:47:45.330Z,95192.13
2019-01-17T07:50:11.684Z,95196.96
2019-01-17T07:52:39.902Z,95195.04
2019-01-17T07:55:06.560Z,95207.85
2019-01-17T07:57:32.926Z,95205.61
2019-01-17T07:59:59.261Z,95213.49
2019-01-17T08:02:25.793Z,95215.36
2019-01-17T08:04:52.133Z,95215.19
2019-01-17T08:07:18.557Z,95217.78
2019-01-17T08:09:46.128Z,95221.41
2019-01-17T08:12:11.264Z,95219.91
2019-01-17T08:14:37.620Z,95223.53
2019-01-17T08:17:04.083Z,95224.59
2019-01-17T08:19:30.619Z,95226.45
2019-01-17T08:21:56.958Z,95232.39
2019-01-17T08:24:23.651Z,95226.77
2019-01-17T08:26:50.022Z,95230.28
2019-01-17T08:29:16.337Z,95229.20
2019-01-17T08:31:42.660Z,95227.34
2019-01-17T08:34:09.018Z,95226.62
2019-01-17T08:36:35.430Z,95226.98
2019-01-17T08:39:01.761Z,95226.16
2019-01-17T08:41:28.303Z,95226.95
2019-01-17T08:43:54.645Z,95226.56
2019-01-17T08:46:20.974Z,95227.28
2019-01-17T08:48:47.330Z,95223.98
2019-01-17T08:51:13.658Z,95225.42
2019-01-17T08:53:40.043Z,95230.34
2019-01-17T08:56:06.395Z,95235.75
2019-01-17T08:58:32.744Z,95226.00
2019-01-17T09:00:59.173Z,95229.41
2019-01-17T09:03:25.508Z,95218.57
2019-01-17T09:05:52.018Z,95227.53
2019-01-17T09:08:18.351Z,95226.35
2019-01-17T09:10:44.692Z,95225.17
2019-01-17T09:13:11.138Z,95221.55
2019-01-17T09:15:37.524Z,95221.30
2019-01-17T09:18:03.957Z,95216.95
2019-01-17T09:20:30.408Z,95208.98
2019-01-17T09:22:56.722Z,95216.13
2019-01-17T09:25:24.157Z,95211.93
2019-01-17T09:27:50.518Z,95210.17
2019-01-17T09:30:16.851Z,95207.97
2019-01-17T09:32:43.208Z,95206.22
2019-01-17T09:35:09.693Z,95208.55
2019-01-17T09:37:36.156Z,95200.72
2019-01-17T09:40:02.581Z,95202.34
2019-01-17T09:42:31.085Z,95201.77
2019-01-17T09:44:57.506Z,95196.71
2019-01-17T09:47:23.966Z,95193.94
2019-01-17T09:49:50.447Z,95181.28
2019-01-17T09:52:16.905Z,95194.52
2019-01-17T09:54:43.300Z,95184.73
2019-01-17T09:57:09.625Z,95188.17
2019-01-17T09:59:35.962Z,95187.48
2019-01-17T10:02:02.317Z,95179.24
2019-01-17T10:04:28.644Z,95171.11
2019-01-17T10:06:55.016Z,95173.20
2019-01-17T10:09:21.536Z,95165.39
2019-01-17T10:11:47.950Z,95167.65
2019-01-17T10:14:14.270Z,95165.09
2019-01-17T10:16:40.643Z,95154.96
2019-01-17T10:19:07.060Z,95156.67
2019-01-17T10:21:33.394Z,95152.19
2019-01-17T10:24:00.021Z,95151.15
2019-01-17T10:26:26.353Z,95145.63
2019-01-17T10:28:52.766Z,95148.95
2019-01-17T10:31:19.180Z,95145.77
2019-01-17T10:33:45.525Z,95142.74
2019-01-17T10:36:11.963Z,95133.33
2019-01-17T10:38:38.312Z,95129.51
2019-01-17T10:41:04.656Z,95129.27
2019-01-17T10:43:30.985Z,95123.28
2019-01-17T10:45:57.329Z,95123.99
2019-01-17T10:48:23.763Z,95120.23
2019-01-17T10:50:50.098Z,95116.72
2019-01-17T10:53:16.426Z,95115.17
2019-01-17T10:55:42.763Z,95112.23
2019-01-17T10:58:09.118Z,95109.55
2019-01-17T11:00:35.551Z,95105.68
2019-01-17T11:03:01.851Z,95105.68
2019-01-17T11:05:28.253Z,95105.44
2019-01-17T11:07:54.589Z,95104.39
2019-01-17T11:10:20.941Z,95096.29
2019-01-17T11:12:47.302Z,95100.63
2019-01-17T11:15:13.689Z,95091.95
2019-01-17T11:17:40.170Z,95093.64
2019-01-17T11:20:06.531Z,95087.37
2019-01-17T11:22:32.976Z,95085.36
2019-01-17T11:24:59.311Z,95088.55
2019-01-17T11:27:25.694Z,95086.87
2019-01-17T11:29:52.005Z,95085.58
2019-01-17T11:32:18.353Z,95082.31
2019-01-17T11:34:44.834Z,95078.52
2019-01-17T11:37:11.151Z,95080.09
2019-01-17T11:39:37.518Z,95075.47
2019-01-17T11:42:03.884Z,95070.91
2019-01-17T11:44:30.212Z,95070.70
2019-01-17T11:46:56.544Z,95064.61
2019-01-17T11:49:22.930Z,95057.33
2019-01-17T11:51:49.351Z,95057.30
2019-01-17T11:54:16.077Z,95057.00
2019-01-17T11:56:42.417Z,95055.32
2019-01-17T11:59:08.785Z,95040.45
2019-01-17T12:01:35.295Z,95053.78
2019-01-17T12:04:01.675Z,95057.36
2019-01-17T12:06:28.153Z,95049.88
2019-01-17T12:08:54.835Z,95042.13
2019-01-17T12:11:21.258Z,95046.57
2019-01-17T12:13:47.611Z,95039.44
2019-01-17T12:16:13.998Z,95035.09
2019-01-17T12:18:40.406Z,95034.95
2019-01-17T12:21:06.770Z,95029.54
2019-01-17T12:23:33.112Z,95008.41
2019-01-17T12:25:59.509Z,95026.64
2019-01-17T12:28:25.912Z,95023.44
2019-01-17T12:30:52.258Z,95025.45
2019-01-17T12:33:18.603Z,95022.27
2019-01-17T12:35:44.945Z,95021.54
2019-01-17T12:38:11.355Z,95028.14
2019-01-17T12:40:37.882Z,95010.63
2019-01-17T12:43:04.639Z,95013.98
2019-01-17T12:45:31.011Z,95013.89
2019-01-17T12:47:57.358Z,95017.92
2019-01-17T12:50:23.746Z,95011.92
2019-01-17T12:52:50.076Z,95010.64
2019-01-17T12:55:16.426Z,95010.74
2019-01-17T12:57:42.830Z,95011.86
2019-01-17T13:00:09.264Z,95016.37
2019-01-17T13:02:35.686Z,95015.86
2019-01-17T13:05:02.063Z,95007.70
2019-01-17T13:07:28.438Z,95017.66
2019-01-17T13:09:54.756Z,95013.48
2019-01-17T13:12:21.128Z,95020.14
2019-01-17T13:14:47.479Z,95020.70
2019-01-17T13:17:13.982Z,95020.45
2019-01-17T13:19:40.984Z,95018.45
2019-01-17T13:22:06.704Z,95022.15
2019-01-17T13:24:33.038Z,95009.75
2019-01-17T13:27:00.846Z,95018.13
2019-01-17T13:29:25.743Z,95021.64
2019-01-17T13:31:52.074Z,95020.61
2019-01-17T13:34:18.485Z,95022.62
2019-01-17T13:36:44.875Z,95017.82
2019-01-17T13:39:11.190Z,95015.75
2019-01-17T13:41:37.596Z,95019.41
2019-01-17T13:44:03.907Z,95018.64
2019-01-17T13:46:30.255Z,95020.30
2019-01-17T13:48:56.688Z,95021.58
2019-01-17T13:51:23.027Z,95020.29
2019-01-17T13:53:49.379Z,95021.69
2019-01-17T13:56:15.776Z,95019.53
2019-01-17T13:58:42.113Z,95014.87
2019-01-17T14:01:08.517Z,95012.91
2019-01-17T14:03:34.846Z,95008.16
2019-01-17T14:06:01.286Z,95018.03
2019-01-17T14:08:27.630Z,95009.20
2019-01-17T14:10:54.136Z,95006.39
2019-01-17T14:13:20.415Z,95006.13
2019-01-17T14:15:46.760Z,95007.55
2019-01-17T14:18:13.103Z,95005.42
2019-01-17T14:20:39.435Z,95009.86
2019-01-17T14:23:05.931Z,94998.24
2019-01-17T14:25:33.326Z,95004.95
2019-01-17T14:27:59.648Z,95008.93
2019-01-17T14:30:25.994Z,95004.95
2019-01-17T14:32:52.490Z,95004.84
2019-01-17T14:35:18.887Z,95009.96
2019-01-17T14:37:45.258Z,94999.05
2019-01-17T14:40:11.594Z,95004.48
2019-01-17T14:42:37.950Z,94997.03
2019-01-17T14:45:04.309Z,94993.63
2019-01-17T14:47:30.676Z,94990.75
2019-01-17T14:49:57.131Z,95001.30
2019-01-17T14:52:23.415Z,94996.48
2019-01-17T14:54:49.810Z,94995.19
2019-01-17T14:57:20.652Z,94999.05
2019-01-17T14:59:42.633Z,94990.56
2019-01-17T15:02:09.077Z,94994.59
2019-01-17T15:04:35.429Z,94997.96
2019-01-17T15:07:01.776Z,95000.17
2019-01-17T15:09:28.164Z,94991.08
2019-01-17T15:11:54.543Z,94997.02
2019-01-17T15:14:20.894Z,94992.25
2019-01-17T15:16:47.332Z,94994.31
2019-01-17T15:19:13.765Z,94994.37
2019-01-17T15:21:40.101Z,94993.50
2019-01-17T15:24:06.451Z,94997.89
2019-01-17T15:26:32.781Z,94990.61
2019-01-17T15:28:59.219Z,94990.96
2019-01-17T15:31:25.743Z,94994.13
2019-01-17T15:33:52.078Z,94993.08
2019-01-17T15:36:18.430Z,94990.25
2019-01-17T15:38:44.764Z,94997.33
2019-01-17T15:41:13.744Z,95002.53
2019-01-17T15:43:40.087Z,94999.39
2019-01-17T15:46:06.414Z,95006.55
2019-01-17T15:48:32.751Z,95011.42
2019-01-17T15:50:59.082Z,95009.83
2019-01-17T15:53:25.477Z,95006.58
2019-01-17T15:55:51.882Z,95009.89
2019-01-17T15:58:18.232Z,95010.03
2019-01-17T16:00:44.634Z,95010.77
2019-01-17T16:03:10.996Z,95012.55
2019-01-17T16:05:37.427Z,95014.08
2019-01-17T16:08:03.832Z,95021.12
2019-01-17T16:10:30.201Z,95019.80
2019-01-17T16:12:56.533Z,95019.82
2019-01-17T16:15:22.932Z,95017.34
2019-01-17T16:17:49.285Z,95018.44
2019-01-17T16:20:15.610Z,95022.77
2019-01-17T16:22:41.969Z,95015.71
2019-01-17T16:25:08.351Z,95014.35
2019-01-17T16:27:41.501Z,95012.43
2019-01-17T16:30:01.146Z,95011.98
2019-01-17T16:32:27.486Z,95019.58
2019-01-17T16:34:53.818Z,95013.69
2019-01-17T16:37:20.311Z,95023.30
2019-01-17T16:39:46.641Z,95013.44
2019-01-17T16:42:13.074Z,95018.13
2019-01-17T16:44:39.426Z,95020.97
2019-01-17T16:47:05.775Z,95019.06
2019-01-17T16:49:32.265Z,95014.82
2019-01-17T16:51:58.575Z,95015.70
2019-01-17T16:54:24.926Z,95009.96
2019-01-17T16:56:51.256Z,95012.56
2019-01-17T16:59:17.581Z,95014.06
2019-01-17T17:01:43.960Z,95019.31
2019-01-17T17:04:10.340Z,95014.27
2019-01-17T17:06:36.731Z,95020.61
2019-01-17T17:09:03.088Z,95020.14
2019-01-17T17:11:29.515Z,95021.89
2019-01-17T17:13:55.877Z,95025.09
2019-01-17T17:16:22.368Z,95025.55
2019-01-17T17:18:48.707Z,95031.86
2019-01-17T17:21:15.043Z,95029.27
2019-01-17T17:23:41.429Z,95025.41
2019-01-17T17:26:07.825Z,95027.88
2019-01-17T17:28:34.147Z,95035.62
2019-01-17T17:31:00.510Z,95031.44
2019-01-17T17:33:28.825Z,95039.28
2019-01-17T17:35:53.226Z,95041.80
2019-01-17T17:38:19.554Z,95036.71
2019-01-17T17:40:45.888Z,95042.59
2019-01-17T17:43:12.234Z,95041.63
2019-01-17T17:45:38.577Z,95047.03
2019-01-17T17:48:04.949Z,95041.91
2019-01-17T17:50:31.367Z,95046.86
2019-01-17T17:52:57.791Z,95048.26
2019-01-17T17:55:24.121Z,95044.85
2019-01-17T17:57:50.728Z,95048.72
2019-01-17T18:00:16.814Z,95044.38
2019-01-17T18:02:43.152Z,95044.75
2019-01-17T18:05:09.516Z,95044.64
2019-01-17T18:07:35.907Z,95050.73
2019-01-17T18:10:02.287Z,95052.20
2019-01-17T18:12:28.659Z,95058.58
2019-01-17T18:14:54.968Z,95048.01
2019-01-17T18:17:21.331Z,95053.89
2019-01-17T18:19:47.669Z,95053.06
2019-01-17T18:22:14.094Z,95050.23
2019-01-17T18:24:40.385Z,95052.59
2019-01-17T18:27:06.729Z,95049.91
2019-01-17T18:29:33.050Z,95052.27
2019-01-17T18:31:59.378Z,95052.27
2019-01-17T18:34:25.797Z,95052.40
2019-01-17T18:36:52.128Z,95049.34
2019-01-17T18:39:20.659Z,95046.69
2019-01-17T18:41:44.838Z,95052.31
2019-01-17T18:44:11.254Z,95051.59
2019-01-17T18:46:37.573Z,95050.09
2019-01-17T18:49:03.926Z,95047.29
2019-01-17T18:51:30.279Z,95057.71
2019-01-17T18:53:56.620Z,95056.20
2019-01-17T18:56:23.011Z,95055.52
2019-01-17T18:58:49.332Z,95057.13
2019-01-17T19:01:15.740Z,95061.23
2019-01-17T19:03:42.072Z,95063.02
2019-01-17T19:06:08.402Z,95061.37
2019-01-17T19:08:34.885Z,95069.81
2019-01-17T19:11:01.235Z,95068.77
2019-01-17T19:13:27.578Z,95070.06
2019-01-17T19:15:53.942Z,95068.41
2019-01-17T19:18:20.321Z,95070.77
2019-01-17T19:20:46.667Z,95068.30
2019-01-17T19:23:13.051Z,95080.03
2019-01-17T19:25:39.469Z,95078.05
2019-01-17T19:28:05.761Z,95075.59
2019-01-17T19:30:32.163Z,95078.98
2019-01-17T19:32:58.597Z,95082.84
2019-01-17T19:35:25.035Z,95088.80
2019-01-17T19:37:51.394Z,95088.08
2019-01-17T19:40:17.817Z,95088.09
2019-01-17T19:42:44.373Z,95079.19
2019-01-17T19:45:10.684Z,95083.29
2019-01-17T19:47:37.095Z,95082.00
2019-01-17T19:50:03.542Z,95084.12
2019-01-17T19:52:29.891Z,95088.91
2019-01-17T19:54:56.223Z,95089.05
2019-01-17T19:57:22.739Z,95087.17
2019-01-17T19:59:49.191Z,95092.29
2019-01-17T20:02:15.558Z,95090.53
2019-01-17T20:04:42.001Z,95094.64
2019-01-17T20:07:08.608Z,95094.05
2019-01-17T20:09:34.912Z,95095.00
2019-01-17T20:12:01.323Z,95093.72
2019-01-17T20:14:27.621Z,95094.73
2019-01-17T20:16:54.092Z,95085.63
2019-01-17T20:19:20.410Z,95083.84
2019-01-17T20:21:46.803Z,95085.13
2019-01-17T20:24:13.803Z,95088.99
2019-01-17T20:26:40.196Z,95085.73
2019-01-17T20:29:06.581Z,95088.53
2019-01-17T20:31:33.230Z,95079.98
2019-01-17T20:33:59.731Z,95074.14
2019-01-17T20:36:26.202Z,95069.22
2019-01-17T20:38:52.608Z,95076.68
2019-01-17T20:41:19.073Z,95077.05
2019-01-17T20:43:45.433Z,95076.45
2019-01-17T20:46:11.911Z,95070.91
2019-01-17T20:48:38.298Z,95077.02
2019-01-17T20:51:04.635Z,95085.79
2019-01-17T20:53:31.119Z,95078.76
2019-01-17T20:55:57.450Z,95081.80
2019-01-17T20:58:23.793Z,95084.70
2019-01-17T21:00:50.130Z,95084.47
2019-01-17T21:03:16.517Z,95082.84
2019-01-17T21:05:42.852Z,95083.77
2019-01-17T21:08:09.183Z,95082.48
2019-01-17T21:10:35.561Z,95084.09
2019-01-17T21:13:01.955Z,95085.61
2019-01-17T21:15:28.465Z,95085.51
2019-01-17T21:17:54.792Z,95081.52
2019-01-17T21:20:21.185Z,95079.64
2019-01-17T21:22:47.544Z,95085.47
2019-01-17T21:25:13.958Z,95080.81
2019-01-17T21:27:40.278Z,95084.41
2019-01-17T21:30:06.608Z,95079.62
2019-01-17T21:32:32.967Z,95074.02
2019-01-17T21:34:59.341Z,95076.36
2019-01-17T21:37:25.689Z,95081.73
2019-01-17T21:39:52.094Z,95076.37
2019-01-17T21:42:18.430Z,95071.68
2019-01-17T21:44:44.809Z,95068.05
2019-01-17T21:47:11.122Z,95074.27
2019-01-17T21:49:37.486Z,95072.05
2019-01-17T21:52:03.808Z,95074.98
2019-01-17T21:54:30.145Z,95082.48
2019-01-17T21:56:56.547Z,95079.67
2019-01-17T21:59:22.905Z,95079.18
2019-01-17T22:01:49.281Z,95082.48
2019-01-17T22:04:15.686Z,95081.75
2019-01-17T22:06:42.034Z,95079.31
2019-01-17T22:09:08.374Z,95073.93
2019-01-17T22:11:34.705Z,95072.97
2019-01-17T22:14:01.118Z,95066.62
2019-01-17T22:16:27.423Z,95070.25
2019-01-17T22:18:53.759Z,95071.06
2019-01-17T22:21:20.162Z,95069.05
2019-01-17T22:23:46.540Z,95062.25
2019-01-17T22:26:12.867Z,95061.09
2019-01-17T22:28:39.204Z,95060.25
2019-01-17T22:31:05.534Z,95066.68
2019-01-17T22:33:31.940Z,95068.19
2019-01-17T22:35:58.289Z,95068.88
2019-01-17T22:38:24.643Z,95067.68
2019-01-17T22:40:50.979Z,95066.03
2019-01-17T22:43:17.386Z,95062.16
2019-01-17T22:45:43.715Z,95069.87
2019-01-17T22:48:10.153Z,95066.36
2019-01-17T22:50:36.542Z,95066.09
2019-01-17T22:53:02.894Z,95068.39
2019-01-17T22:55:29.307Z,95065.83
2019-01-17T22:57:55.601Z,95060.31
2019-01-17T23:00:21.939Z,95063.02
2019-01-17T23:02:48.261Z,95067.55
2019-01-17T23:05:14.594Z,95058.68
2019-01-17T23:07:41.003Z,95063.22
2019-01-17T23:10:07.335Z,95058.53
2019-01-17T23:12:33.665Z,95063.89
2019-01-17T23:14:59.995Z,95053.61
2019-01-17T23:17:26.411Z,95052.78
2019-01-17T23:19:52.763Z,95052.64
2019-01-17T23:22:19.089Z,95052.27
2019-01-17T23:24:45.444Z,95052.40
2019-01-17T23:27:11.775Z,95039.19
2019-01-17T23:29:38.167Z,95041.37
2019-01-17T23:32:04.496Z,95045.95
2019-01-17T23:34:30.909Z,95033.44
2019-01-17T23:36:57.282Z,95039.75
2019-01-17T23:39:23.694Z,95035.89
2019-01-17T23:41:50.158Z,95035.28
2019-01-17T23:44:16.483Z,95033.27
2019-01-17T23:46:42.838Z,95033.73
2019-01-17T23:49:09.164Z,95032.56
2019-01-17T23:51:35.545Z,95028.56
2019-01-17T23:54:01.895Z,95027.19
2019-01-17T23:56:28.314Z,95034.89
2019-01-17T23:58:54.673Z,95030.31
